sensor_id;sensor_type;location;lat;lon;timestamp;temperature;humidity
431;DHT22;202;48.764;9.172;2023-12-28T00:04:19;10.70;7.60
431;DHT22;202;48.764;9.172;2023-12-28T00:06:47;10.80;7.30
431;DHT22;202;48.764;9.172;2023-12-28T00:18:39;10.90;7.90
431;DHT22;202;48.764;9.172;2023-12-28T00:23:56;10.70;8.40
431;DHT22;202;48.764;9.172;2023-12-28T00:33:16;10.50;8.80
431;DHT22;202;48.764;9.172;2023-12-28T00:39:02;10.40;9.70
431;DHT22;202;48.764;9.172;2023-12-28T00:41:32;10.40;9.80
431;DHT22;202;48.764;9.172;2023-12-28T00:44:00;10.40;9.80
431;DHT22;202;48.764;9.172;2023-12-28T00:46:28;10.40;9.80
431;DHT22;202;48.764;9.172;2023-12-28T00:49:05;10.30;8.80
431;DHT22;202;48.764;9.172;2023-12-28T00:51:38;10.30;9.90
431;DHT22;202;48.764;9.172;2023-12-28T00:54:12;10.40;9.30
431;DHT22;202;48.764;9.172;2023-12-28T00:56:40;10.40;8.80
431;DHT22;202;48.764;9.172;2023-12-28T00:59:13;10.40;9.60
431;DHT22;202;48.764;9.172;2023-12-28T01:01:56;10.40;9.40
431;DHT22;202;48.764;9.172;2023-12-28T01:04:39;10.30;8.70
431;DHT22;202;48.764;9.172;2023-12-28T01:07:22;10.30;9.60
431;DHT22;202;48.764;9.172;2023-12-28T01:10:07;10.30;10.10
431;DHT22;202;48.764;9.172;2023-12-28T01:12:34;10.30;8.70
431;DHT22;202;48.764;9.172;2023-12-28T01:15:15;10.30;9.70
431;DHT22;202;48.764;9.172;2023-12-28T01:17:49;10.30;9.20
431;DHT22;202;48.764;9.172;2023-12-28T01:20:26;10.20;10.30
431;DHT22;202;48.764;9.172;2023-12-28T01:23:05;10.20;10.50
431;DHT22;202;48.764;9.172;2023-12-28T01:25:48;10.20;10.20
431;DHT22;202;48.764;9.172;2023-12-28T01:28:29;10.10;11.20
431;DHT22;202;48.764;9.172;2023-12-28T01:31:23;10.00;11.50
431;DHT22;202;48.764;9.172;2023-12-28T01:33:53;9.90;12.20
431;DHT22;202;48.764;9.172;2023-12-28T01:36:47;10.00;11.70
431;DHT22;202;48.764;9.172;2023-12-28T01:39:23;9.80;12.50
431;DHT22;202;48.764;9.172;2023-12-28T01:41:54;9.80;12.60
431;DHT22;202;48.764;9.172;2023-12-28T01:44:26;9.90;13.20
431;DHT22;202;48.764;9.172;2023-12-28T01:46:58;9.90;13.00
431;DHT22;202;48.764;9.172;2023-12-28T01:49:25;9.80;13.00
431;DHT22;202;48.764;9.172;2023-12-28T01:53:59;9.80;12.90
431;DHT22;202;48.764;9.172;2023-12-28T01:56:00;9.80;12.60
431;DHT22;202;48.764;9.172;2023-12-28T01:58:41;9.70;12.80
431;DHT22;202;48.764;9.172;2023-12-28T02:01:12;9.70;13.30
431;DHT22;202;48.764;9.172;2023-12-28T02:03:42;9.70;12.90
431;DHT22;202;48.764;9.172;2023-12-28T02:06:30;9.70;13.30
431;DHT22;202;48.764;9.172;2023-12-28T02:09:13;9.70;13.30
431;DHT22;202;48.764;9.172;2023-12-28T02:11:44;9.70;13.30
431;DHT22;202;48.764;9.172;2023-12-28T02:14:30;9.70;13.30
431;DHT22;202;48.764;9.172;2023-12-28T02:17:10;9.50;13.70
431;DHT22;202;48.764;9.172;2023-12-28T02:19:52;9.60;13.80
431;DHT22;202;48.764;9.172;2023-12-28T02:22:28;9.60;13.50
431;DHT22;202;48.764;9.172;2023-12-28T02:25:07;9.60;13.90
431;DHT22;202;48.764;9.172;2023-12-28T02:27:44;9.60;13.20
431;DHT22;202;48.764;9.172;2023-12-28T02:30:35;9.50;13.00
431;DHT22;202;48.764;9.172;2023-12-28T02:33:15;9.60;13.20
431;DHT22;202;48.764;9.172;2023-12-28T02:35:51;9.50;12.50
431;DHT22;202;48.764;9.172;2023-12-28T02:38:24;9.50;12.60
431;DHT22;202;48.764;9.172;2023-12-28T02:44:12;9.60;13.20
431;DHT22;202;48.764;9.172;2023-12-28T02:46:49;9.60;13.40
431;DHT22;202;48.764;9.172;2023-12-28T02:49:19;9.60;12.50
431;DHT22;202;48.764;9.172;2023-12-28T02:52:16;9.60;12.50
431;DHT22;202;48.764;9.172;2023-12-28T02:55:21;9.60;11.40
431;DHT22;202;48.764;9.172;2023-12-28T02:58:25;9.70;11.30
431;DHT22;202;48.764;9.172;2023-12-28T03:01:04;9.60;12.40
431;DHT22;202;48.764;9.172;2023-12-28T03:03:48;9.70;12.50
431;DHT22;202;48.764;9.172;2023-12-28T03:06:29;9.70;11.70
431;DHT22;202;48.764;9.172;2023-12-28T03:09:04;9.60;11.70
431;DHT22;202;48.764;9.172;2023-12-28T03:11:39;9.60;12.50
431;DHT22;202;48.764;9.172;2023-12-28T03:14:08;9.60;12.80
431;DHT22;202;48.764;9.172;2023-12-28T03:16:44;9.60;11.80
431;DHT22;202;48.764;9.172;2023-12-28T03:19:20;9.50;13.20
431;DHT22;202;48.764;9.172;2023-12-28T03:21:56;9.40;13.10
431;DHT22;202;48.764;9.172;2023-12-28T03:24:51;9.40;13.30
431;DHT22;202;48.764;9.172;2023-12-28T03:27:19;9.50;12.80
431;DHT22;202;48.764;9.172;2023-12-28T03:30:12;9.40;12.30
431;DHT22;202;48.764;9.172;2023-12-28T03:50:29;9.60;11.40
431;DHT22;202;48.764;9.172;2023-12-28T03:53:07;9.70;11.90
431;DHT22;202;48.764;9.172;2023-12-28T03:55:43;9.70;12.60
431;DHT22;202;48.764;9.172;2023-12-28T03:58:19;9.70;10.90
431;DHT22;202;48.764;9.172;2023-12-28T04:00:58;9.90;12.10
431;DHT22;202;48.764;9.172;2023-12-28T04:03:32;9.80;12.60
431;DHT22;202;48.764;9.172;2023-12-28T04:06:10;9.80;12.60
431;DHT22;202;48.764;9.172;2023-12-28T04:08:47;9.80;13.10
431;DHT22;202;48.764;9.172;2023-12-28T04:11:15;9.70;11.70
431;DHT22;202;48.764;9.172;2023-12-28T04:13:47;9.70;13.70
431;DHT22;202;48.764;9.172;2023-12-28T04:16:16;9.60;14.00
431;DHT22;202;48.764;9.172;2023-12-28T04:18:49;9.60;14.40
431;DHT22;202;48.764;9.172;2023-12-28T04:21:21;9.60;14.10
431;DHT22;202;48.764;9.172;2023-12-28T04:23:48;9.50;14.30
431;DHT22;202;48.764;9.172;2023-12-28T04:26:18;9.60;14.10
431;DHT22;202;48.764;9.172;2023-12-28T04:28:45;9.60;14.40
431;DHT22;202;48.764;9.172;2023-12-28T04:31:29;9.50;14.70
431;DHT22;202;48.764;9.172;2023-12-28T04:34:21;9.50;14.50
431;DHT22;202;48.764;9.172;2023-12-28T04:47:32;9.50;15.20
431;DHT22;202;48.764;9.172;2023-12-28T04:51:55;9.40;15.00
431;DHT22;202;48.764;9.172;2023-12-28T04:53:25;9.50;15.20
431;DHT22;202;48.764;9.172;2023-12-28T04:56:04;9.60;14.40
431;DHT22;202;48.764;9.172;2023-12-28T04:58:39;9.70;13.30
431;DHT22;202;48.764;9.172;2023-12-28T05:01:11;9.80;14.10
431;DHT22;202;48.764;9.172;2023-12-28T05:03:43;9.80;13.00
431;DHT22;202;48.764;9.172;2023-12-28T05:06:16;9.90;13.70
431;DHT22;202;48.764;9.172;2023-12-28T05:08:49;10.00;12.90
431;DHT22;202;48.764;9.172;2023-12-28T05:11:20;10.00;12.60
431;DHT22;202;48.764;9.172;2023-12-28T05:13:56;10.00;13.20
431;DHT22;202;48.764;9.172;2023-12-28T05:16:26;10.00;13.50
431;DHT22;202;48.764;9.172;2023-12-28T05:18:54;10.00;13.60
431;DHT22;202;48.764;9.172;2023-12-28T05:21:21;10.00;13.80
431;DHT22;202;48.764;9.172;2023-12-28T05:23:48;10.10;13.60
431;DHT22;202;48.764;9.172;2023-12-28T05:26:15;10.10;13.70
431;DHT22;202;48.764;9.172;2023-12-28T05:28:42;10.10;13.70
431;DHT22;202;48.764;9.172;2023-12-28T05:31:09;10.00;13.80
431;DHT22;202;48.764;9.172;2023-12-28T05:33:38;10.00;13.70
431;DHT22;202;48.764;9.172;2023-12-28T05:36:09;10.00;14.00
431;DHT22;202;48.764;9.172;2023-12-28T05:38:36;10.00;13.60
431;DHT22;202;48.764;9.172;2023-12-28T05:41:03;9.90;15.00
431;DHT22;202;48.764;9.172;2023-12-28T05:43:30;10.00;14.60
431;DHT22;202;48.764;9.172;2023-12-28T05:46:02;9.90;15.30
431;DHT22;202;48.764;9.172;2023-12-28T05:48:28;10.00;14.70
431;DHT22;202;48.764;9.172;2023-12-28T05:50:57;10.00;15.00
431;DHT22;202;48.764;9.172;2023-12-28T05:53:26;10.00;15.20
431;DHT22;202;48.764;9.172;2023-12-28T05:55:55;10.00;14.90
431;DHT22;202;48.764;9.172;2023-12-28T05:58:27;10.10;15.10
431;DHT22;202;48.764;9.172;2023-12-28T06:00:54;10.10;15.70
431;DHT22;202;48.764;9.172;2023-12-28T06:03:23;10.00;15.40
431;DHT22;202;48.764;9.172;2023-12-28T06:05:56;10.10;15.70
431;DHT22;202;48.764;9.172;2023-12-28T06:08:26;10.10;15.70
431;DHT22;202;48.764;9.172;2023-12-28T06:11:00;10.10;15.90
431;DHT22;202;48.764;9.172;2023-12-28T06:13:31;10.20;15.70
431;DHT22;202;48.764;9.172;2023-12-28T06:15:58;10.20;16.50
431;DHT22;202;48.764;9.172;2023-12-28T06:18:25;10.20;16.60
431;DHT22;202;48.764;9.172;2023-12-28T06:20:52;10.20;16.30
431;DHT22;202;48.764;9.172;2023-12-28T06:23:19;10.30;17.10
431;DHT22;202;48.764;9.172;2023-12-28T06:25:48;10.30;17.10
431;DHT22;202;48.764;9.172;2023-12-28T06:28:15;10.30;17.10
431;DHT22;202;48.764;9.172;2023-12-28T06:30:44;10.30;17.10
431;DHT22;202;48.764;9.172;2023-12-28T06:33:11;10.40;17.20
431;DHT22;202;48.764;9.172;2023-12-28T06:35:44;10.40;17.20
431;DHT22;202;48.764;9.172;2023-12-28T06:38:19;10.40;15.70
431;DHT22;202;48.764;9.172;2023-12-28T06:41:32;10.50;16.20
431;DHT22;202;48.764;9.172;2023-12-28T06:44:14;10.50;14.80
431;DHT22;202;48.764;9.172;2023-12-28T06:46:54;10.50;14.50
431;DHT22;202;48.764;9.172;2023-12-28T06:49:32;10.60;14.30
431;DHT22;202;48.764;9.172;2023-12-28T06:52:08;10.70;14.10
431;DHT22;202;48.764;9.172;2023-12-28T06:54:46;10.80;14.10
431;DHT22;202;48.764;9.172;2023-12-28T06:57:30;11.00;14.30
431;DHT22;202;48.764;9.172;2023-12-28T07:00:02;11.10;14.00
431;DHT22;202;48.764;9.172;2023-12-28T07:02:45;11.20;14.80
431;DHT22;202;48.764;9.172;2023-12-28T07:05:31;11.20;14.10
431;DHT22;202;48.764;9.172;2023-12-28T07:07:58;11.20;14.30
431;DHT22;202;48.764;9.172;2023-12-28T07:10:50;11.30;14.10
431;DHT22;202;48.764;9.172;2023-12-28T07:14:22;11.20;14.10
431;DHT22;202;48.764;9.172;2023-12-28T07:16:45;11.30;14.30
431;DHT22;202;48.764;9.172;2023-12-28T07:19:14;11.30;14.20
431;DHT22;202;48.764;9.172;2023-12-28T07:21:47;11.40;14.50
431;DHT22;202;48.764;9.172;2023-12-28T07:24:16;11.40;14.50
431;DHT22;202;48.764;9.172;2023-12-28T07:26:43;11.40;15.20
431;DHT22;202;48.764;9.172;2023-12-28T07:29:16;11.40;16.00
431;DHT22;202;48.764;9.172;2023-12-28T07:32:02;11.40;16.10
431;DHT22;202;48.764;9.172;2023-12-28T07:38:07;11.50;16.20
431;DHT22;202;48.764;9.172;2023-12-28T07:40:49;11.50;16.80
431;DHT22;202;48.764;9.172;2023-12-28T07:44:56;11.50;17.30
431;DHT22;202;48.764;9.172;2023-12-28T07:47:10;11.50;17.10
431;DHT22;202;48.764;9.172;2023-12-28T07:53:45;11.50;17.50
431;DHT22;202;48.764;9.172;2023-12-28T08:03:44;11.40;17.90
431;DHT22;202;48.764;9.172;2023-12-28T08:06:45;11.40;17.90
431;DHT22;202;48.764;9.172;2023-12-28T08:10:21;11.40;18.40
431;DHT22;202;48.764;9.172;2023-12-28T08:13:39;11.40;19.10
431;DHT22;202;48.764;9.172;2023-12-28T08:16:53;11.40;19.10
431;DHT22;202;48.764;9.172;2023-12-28T08:20:01;11.40;19.60
431;DHT22;202;48.764;9.172;2023-12-28T08:23:25;11.40;19.10
431;DHT22;202;48.764;9.172;2023-12-28T08:26:14;11.40;19.70
431;DHT22;202;48.764;9.172;2023-12-28T08:35:37;11.40;20.10
431;DHT22;202;48.764;9.172;2023-12-28T08:38:20;11.40;20.50
431;DHT22;202;48.764;9.172;2023-12-28T08:41:06;11.40;20.30
431;DHT22;202;48.764;9.172;2023-12-28T08:43:39;11.40;20.80
431;DHT22;202;48.764;9.172;2023-12-28T08:46:24;11.50;21.00
431;DHT22;202;48.764;9.172;2023-12-28T08:48:55;11.50;20.80
431;DHT22;202;48.764;9.172;2023-12-28T08:51:24;11.50;20.80
431;DHT22;202;48.764;9.172;2023-12-28T08:53:53;11.60;20.60
431;DHT22;202;48.764;9.172;2023-12-28T08:56:21;11.60;20.60
431;DHT22;202;48.764;9.172;2023-12-28T08:58:49;11.70;20.00
431;DHT22;202;48.764;9.172;2023-12-28T09:01:20;11.70;19.90
431;DHT22;202;48.764;9.172;2023-12-28T09:03:52;11.70;20.60
431;DHT22;202;48.764;9.172;2023-12-28T09:06:26;11.80;20.80
431;DHT22;202;48.764;9.172;2023-12-28T09:08:58;11.80;19.90
431;DHT22;202;48.764;9.172;2023-12-28T09:11:28;11.80;19.50
431;DHT22;202;48.764;9.172;2023-12-28T09:14:53;11.80;18.80
431;DHT22;202;48.764;9.172;2023-12-28T09:17:43;11.90;18.20
431;DHT22;202;48.764;9.172;2023-12-28T09:24:26;11.90;18.70
431;DHT22;202;48.764;9.172;2023-12-28T09:27:30;12.00;19.60
431;DHT22;202;48.764;9.172;2023-12-28T09:30:36;11.90;18.20
431;DHT22;202;48.764;9.172;2023-12-28T09:33:39;11.90;18.20
431;DHT22;202;48.764;9.172;2023-12-28T09:36:30;12.00;18.70
431;DHT22;202;48.764;9.172;2023-12-28T09:46:08;12.00;20.40
431;DHT22;202;48.764;9.172;2023-12-28T09:49:37;12.10;20.80
431;DHT22;202;48.764;9.172;2023-12-28T09:52:22;12.10;21.30
431;DHT22;202;48.764;9.172;2023-12-28T09:55:12;12.20;21.30
431;DHT22;202;48.764;9.172;2023-12-28T09:58:01;12.30;21.70
431;DHT22;202;48.764;9.172;2023-12-28T10:14:45;12.50;21.40
431;DHT22;202;48.764;9.172;2023-12-28T10:20:39;12.60;21.40
431;DHT22;202;48.764;9.172;2023-12-28T10:23:12;12.60;21.00
431;DHT22;202;48.764;9.172;2023-12-28T10:25:39;12.50;20.90
431;DHT22;202;48.764;9.172;2023-12-28T10:28:10;12.60;20.80
431;DHT22;202;48.764;9.172;2023-12-28T10:30:43;12.60;20.50
431;DHT22;202;48.764;9.172;2023-12-28T10:33:43;12.60;20.70
431;DHT22;202;48.764;9.172;2023-12-28T10:36:21;12.60;20.70
431;DHT22;202;48.764;9.172;2023-12-28T10:39:06;12.70;21.00
431;DHT22;202;48.764;9.172;2023-12-28T10:41:41;12.70;21.10
431;DHT22;202;48.764;9.172;2023-12-28T10:44:16;12.60;21.30
431;DHT22;202;48.764;9.172;2023-12-28T10:46:44;12.70;21.60
431;DHT22;202;48.764;9.172;2023-12-28T10:49:28;12.70;21.50
431;DHT22;202;48.764;9.172;2023-12-28T10:52:33;12.80;21.60
431;DHT22;202;48.764;9.172;2023-12-28T10:55:33;12.80;21.30
431;DHT22;202;48.764;9.172;2023-12-28T10:58:24;12.80;22.10
431;DHT22;202;48.764;9.172;2023-12-28T11:01:10;12.80;22.10
431;DHT22;202;48.764;9.172;2023-12-28T11:03:43;12.80;22.20
431;DHT22;202;48.764;9.172;2023-12-28T11:06:15;12.90;22.20
431;DHT22;202;48.764;9.172;2023-12-28T11:08:52;12.90;22.30
431;DHT22;202;48.764;9.172;2023-12-28T11:12:08;13.00;22.40
431;DHT22;202;48.764;9.172;2023-12-28T11:15:20;12.90;23.10
431;DHT22;202;48.764;9.172;2023-12-28T11:17:55;13.00;23.20
431;DHT22;202;48.764;9.172;2023-12-28T11:20:23;13.00;23.60
431;DHT22;202;48.764;9.172;2023-12-28T11:23:07;13.00;23.50
431;DHT22;202;48.764;9.172;2023-12-28T11:25:57;13.00;23.50
431;DHT22;202;48.764;9.172;2023-12-28T11:28:25;13.10;23.60
431;DHT22;202;48.764;9.172;2023-12-28T11:30:56;13.10;23.70
431;DHT22;202;48.764;9.172;2023-12-28T11:33:43;13.10;23.70
431;DHT22;202;48.764;9.172;2023-12-28T11:36:10;13.10;24.00
431;DHT22;202;48.764;9.172;2023-12-28T11:38:49;13.10;24.30
431;DHT22;202;48.764;9.172;2023-12-28T11:41:37;13.10;24.60
431;DHT22;202;48.764;9.172;2023-12-28T11:44:05;13.20;24.90
431;DHT22;202;48.764;9.172;2023-12-28T11:46:42;13.20;24.90
431;DHT22;202;48.764;9.172;2023-12-28T11:49:10;13.10;25.00
431;DHT22;202;48.764;9.172;2023-12-28T11:51:39;13.10;24.90
431;DHT22;202;48.764;9.172;2023-12-28T11:54:14;13.10;25.00
431;DHT22;202;48.764;9.172;2023-12-28T11:56:49;13.20;25.20
431;DHT22;202;48.764;9.172;2023-12-28T11:59:19;13.20;25.20
431;DHT22;202;48.764;9.172;2023-12-28T12:01:52;13.20;24.90
431;DHT22;202;48.764;9.172;2023-12-28T12:04:35;13.20;25.00
431;DHT22;202;48.764;9.172;2023-12-28T12:07:09;13.20;25.20
431;DHT22;202;48.764;9.172;2023-12-28T12:09:46;13.20;25.20
431;DHT22;202;48.764;9.172;2023-12-28T12:12:25;13.30;25.10
431;DHT22;202;48.764;9.172;2023-12-28T12:15:06;13.30;25.00
431;DHT22;202;48.764;9.172;2023-12-28T12:17:36;13.20;25.00
431;DHT22;202;48.764;9.172;2023-12-28T12:20:05;13.20;25.20
431;DHT22;202;48.764;9.172;2023-12-28T12:22:37;13.30;26.00
431;DHT22;202;48.764;9.172;2023-12-28T12:25:15;13.20;24.90
431;DHT22;202;48.764;9.172;2023-12-28T12:27:47;13.20;25.00
431;DHT22;202;48.764;9.172;2023-12-28T12:30:30;13.20;25.30
431;DHT22;202;48.764;9.172;2023-12-28T12:33:00;13.20;25.20
431;DHT22;202;48.764;9.172;2023-12-28T12:35:29;13.20;25.30
431;DHT22;202;48.764;9.172;2023-12-28T12:38:17;13.20;25.10
431;DHT22;202;48.764;9.172;2023-12-28T12:41:20;13.20;25.70
431;DHT22;202;48.764;9.172;2023-12-28T12:44:13;13.20;25.40
431;DHT22;202;48.764;9.172;2023-12-28T12:47:00;13.20;25.00
431;DHT22;202;48.764;9.172;2023-12-28T12:49:40;13.30;25.30
431;DHT22;202;48.764;9.172;2023-12-28T12:52:24;13.30;25.30
431;DHT22;202;48.764;9.172;2023-12-28T12:55:01;13.30;25.20
431;DHT22;202;48.764;9.172;2023-12-28T12:57:31;13.40;25.70
431;DHT22;202;48.764;9.172;2023-12-28T13:00:03;13.30;25.60
431;DHT22;202;48.764;9.172;2023-12-28T13:02:40;13.40;25.80
431;DHT22;202;48.764;9.172;2023-12-28T13:05:11;13.30;26.00
431;DHT22;202;48.764;9.172;2023-12-28T13:07:48;13.40;25.80
431;DHT22;202;48.764;9.172;2023-12-28T13:10:20;13.30;26.20
431;DHT22;202;48.764;9.172;2023-12-28T13:12:52;13.30;26.00
431;DHT22;202;48.764;9.172;2023-12-28T13:15:21;13.30;25.90
431;DHT22;202;48.764;9.172;2023-12-28T13:17:50;13.40;25.80
431;DHT22;202;48.764;9.172;2023-12-28T13:20:22;13.30;25.70
431;DHT22;202;48.764;9.172;2023-12-28T13:22:56;13.30;26.00
431;DHT22;202;48.764;9.172;2023-12-28T13:25:40;13.30;26.40
431;DHT22;202;48.764;9.172;2023-12-28T13:28:18;13.30;26.80
431;DHT22;202;48.764;9.172;2023-12-28T13:30:55;13.20;27.30
431;DHT22;202;48.764;9.172;2023-12-28T13:36:12;13.30;27.30
431;DHT22;202;48.764;9.172;2023-12-28T13:38:49;13.20;26.90
431;DHT22;202;48.764;9.172;2023-12-28T13:41:23;13.20;27.30
431;DHT22;202;48.764;9.172;2023-12-28T13:43:55;13.20;27.00
431;DHT22;202;48.764;9.172;2023-12-28T13:46:35;13.20;27.30
431;DHT22;202;48.764;9.172;2023-12-28T13:49:08;13.20;27.30
431;DHT22;202;48.764;9.172;2023-12-28T13:51:41;13.30;27.30
431;DHT22;202;48.764;9.172;2023-12-28T13:54:19;13.30;27.30
431;DHT22;202;48.764;9.172;2023-12-28T13:56:48;13.20;27.30
431;DHT22;202;48.764;9.172;2023-12-28T13:59:22;13.10;28.10
431;DHT22;202;48.764;9.172;2023-12-28T14:01:52;13.10;28.80
431;DHT22;202;48.764;9.172;2023-12-28T14:04:26;13.10;28.90
431;DHT22;202;48.764;9.172;2023-12-28T14:06:53;13.10;29.20
431;DHT22;202;48.764;9.172;2023-12-28T14:09:22;13.10;29.40
431;DHT22;202;48.764;9.172;2023-12-28T14:12:00;13.00;30.00
431;DHT22;202;48.764;9.172;2023-12-28T14:14:34;12.90;30.10
431;DHT22;202;48.764;9.172;2023-12-28T14:17:10;12.90;30.00
431;DHT22;202;48.764;9.172;2023-12-28T14:19:38;13.00;30.10
431;DHT22;202;48.764;9.172;2023-12-28T14:22:14;13.00;30.30
431;DHT22;202;48.764;9.172;2023-12-28T14:24:43;12.90;30.60
431;DHT22;202;48.764;9.172;2023-12-28T14:27:11;12.90;30.80
431;DHT22;202;48.764;9.172;2023-12-28T14:29:39;13.00;31.30
431;DHT22;202;48.764;9.172;2023-12-28T14:32:14;13.00;31.30
431;DHT22;202;48.764;9.172;2023-12-28T14:34:42;13.00;31.30
431;DHT22;202;48.764;9.172;2023-12-28T14:37:16;13.00;31.30
431;DHT22;202;48.764;9.172;2023-12-28T14:39:44;13.00;31.90
431;DHT22;202;48.764;9.172;2023-12-28T14:42:15;13.00;31.50
431;DHT22;202;48.764;9.172;2023-12-28T14:44:48;13.00;32.10
431;DHT22;202;48.764;9.172;2023-12-28T14:47:17;13.00;31.80
431;DHT22;202;48.764;9.172;2023-12-28T14:49:44;13.00;32.30
431;DHT22;202;48.764;9.172;2023-12-28T14:52:22;13.00;33.00
431;DHT22;202;48.764;9.172;2023-12-28T14:54:57;13.00;33.30
431;DHT22;202;48.764;9.172;2023-12-28T14:57:29;12.90;33.00
431;DHT22;202;48.764;9.172;2023-12-28T14:59:59;12.90;33.30
431;DHT22;202;48.764;9.172;2023-12-28T15:02:30;12.90;33.00
431;DHT22;202;48.764;9.172;2023-12-28T15:04:57;12.70;32.50
431;DHT22;202;48.764;9.172;2023-12-28T15:07:28;12.70;32.80
431;DHT22;202;48.764;9.172;2023-12-28T15:10:04;12.80;33.20
431;DHT22;202;48.764;9.172;2023-12-28T15:12:39;12.70;33.30
431;DHT22;202;48.764;9.172;2023-12-28T15:15:39;12.70;31.70
431;DHT22;202;48.764;9.172;2023-12-28T15:18:19;12.60;31.70
431;DHT22;202;48.764;9.172;2023-12-28T15:20:52;12.60;32.10
431;DHT22;202;48.764;9.172;2023-12-28T15:23:21;12.60;32.00
431;DHT22;202;48.764;9.172;2023-12-28T15:25:51;12.60;32.00
431;DHT22;202;48.764;9.172;2023-12-28T15:28:22;12.50;32.00
431;DHT22;202;48.764;9.172;2023-12-28T15:30:55;12.50;32.20
431;DHT22;202;48.764;9.172;2023-12-28T15:33:22;12.40;32.30
431;DHT22;202;48.764;9.172;2023-12-28T15:35:49;12.50;31.80
431;DHT22;202;48.764;9.172;2023-12-28T15:38:17;12.50;32.20
431;DHT22;202;48.764;9.172;2023-12-28T15:40:45;12.50;32.00
431;DHT22;202;48.764;9.172;2023-12-28T15:43:17;12.40;32.50
431;DHT22;202;48.764;9.172;2023-12-28T15:45:48;12.40;32.10
431;DHT22;202;48.764;9.172;2023-12-28T15:48:24;12.40;32.60
431;DHT22;202;48.764;9.172;2023-12-28T15:50:51;12.40;32.40
431;DHT22;202;48.764;9.172;2023-12-28T15:53:18;12.40;32.40
431;DHT22;202;48.764;9.172;2023-12-28T15:55:48;12.40;32.40
431;DHT22;202;48.764;9.172;2023-12-28T15:58:20;12.40;32.00
431;DHT22;202;48.764;9.172;2023-12-28T16:00:49;12.40;32.10
431;DHT22;202;48.764;9.172;2023-12-28T16:03:19;12.40;31.80
431;DHT22;202;48.764;9.172;2023-12-28T16:05:51;12.30;31.90
431;DHT22;202;48.764;9.172;2023-12-28T16:08:23;12.30;32.10
431;DHT22;202;48.764;9.172;2023-12-28T16:10:54;12.30;32.20
431;DHT22;202;48.764;9.172;2023-12-28T16:13:22;12.30;32.30
431;DHT22;202;48.764;9.172;2023-12-28T16:15:52;12.30;32.10
431;DHT22;202;48.764;9.172;2023-12-28T16:18:19;12.30;31.50
431;DHT22;202;48.764;9.172;2023-12-28T16:20:47;12.30;31.80
431;DHT22;202;48.764;9.172;2023-12-28T16:23:27;12.30;31.90
431;DHT22;202;48.764;9.172;2023-12-28T16:25:57;12.30;31.70
431;DHT22;202;48.764;9.172;2023-12-28T16:28:29;12.30;32.10
431;DHT22;202;48.764;9.172;2023-12-28T16:30:56;12.30;32.20
431;DHT22;202;48.764;9.172;2023-12-28T16:33:26;12.20;32.10
431;DHT22;202;48.764;9.172;2023-12-28T16:35:53;12.30;32.50
431;DHT22;202;48.764;9.172;2023-12-28T16:38:31;12.30;31.90
431;DHT22;202;48.764;9.172;2023-12-28T16:41:01;12.30;32.40
431;DHT22;202;48.764;9.172;2023-12-28T16:43:48;12.30;32.10
431;DHT22;202;48.764;9.172;2023-12-28T16:46:21;12.20;32.50
431;DHT22;202;48.764;9.172;2023-12-28T16:48:48;12.20;32.90
431;DHT22;202;48.764;9.172;2023-12-28T16:51:37;12.20;32.70
431;DHT22;202;48.764;9.172;2023-12-28T16:54:21;12.20;32.70
431;DHT22;202;48.764;9.172;2023-12-28T16:56:55;12.20;32.60
431;DHT22;202;48.764;9.172;2023-12-28T16:59:32;12.20;32.50
431;DHT22;202;48.764;9.172;2023-12-28T17:02:05;12.10;32.70
431;DHT22;202;48.764;9.172;2023-12-28T17:04:34;12.10;32.80
431;DHT22;202;48.764;9.172;2023-12-28T17:10:17;12.00;33.20
431;DHT22;202;48.764;9.172;2023-12-28T17:20:33;12.10;33.20
431;DHT22;202;48.764;9.172;2023-12-28T17:23:09;12.10;33.20
431;DHT22;202;48.764;9.172;2023-12-28T17:25:51;12.10;33.70
431;DHT22;202;48.764;9.172;2023-12-28T17:28:25;12.10;33.70
431;DHT22;202;48.764;9.172;2023-12-28T17:31:06;12.10;34.10
431;DHT22;202;48.764;9.172;2023-12-28T17:33:44;12.10;34.60
431;DHT22;202;48.764;9.172;2023-12-28T17:36:58;12.10;34.30
431;DHT22;202;48.764;9.172;2023-12-28T18:16:37;12.00;36.80
431;DHT22;202;48.764;9.172;2023-12-28T18:19:44;11.90;37.70
431;DHT22;202;48.764;9.172;2023-12-28T18:23:07;11.80;38.00
431;DHT22;202;48.764;9.172;2023-12-28T18:26:10;11.80;38.10
431;DHT22;202;48.764;9.172;2023-12-28T19:21:27;11.80;40.50
431;DHT22;202;48.764;9.172;2023-12-28T19:28:24;11.90;39.90
431;DHT22;202;48.764;9.172;2023-12-28T20:18:29;11.60;44.40
431;DHT22;202;48.764;9.172;2023-12-28T20:24:44;11.70;44.40
431;DHT22;202;48.764;9.172;2023-12-28T20:30:53;11.50;45.00
431;DHT22;202;48.764;9.172;2023-12-28T21:02:38;11.60;45.80
431;DHT22;202;48.764;9.172;2023-12-28T21:05:08;11.50;45.40
431;DHT22;202;48.764;9.172;2023-12-28T21:07:39;11.50;45.80
431;DHT22;202;48.764;9.172;2023-12-28T21:10:12;11.60;45.70
431;DHT22;202;48.764;9.172;2023-12-28T21:12:45;11.60;45.30
431;DHT22;202;48.764;9.172;2023-12-28T21:15:24;11.60;45.20
431;DHT22;202;48.764;9.172;2023-12-28T21:17:56;11.70;45.20
431;DHT22;202;48.764;9.172;2023-12-28T21:20:28;11.70;45.20
431;DHT22;202;48.764;9.172;2023-12-28T21:22:57;11.70;43.70
431;DHT22;202;48.764;9.172;2023-12-28T21:25:24;11.70;43.80
431;DHT22;202;48.764;9.172;2023-12-28T21:27:56;11.70;44.00
431;DHT22;202;48.764;9.172;2023-12-28T21:30:27;11.60;44.00
431;DHT22;202;48.764;9.172;2023-12-28T21:32:56;11.70;44.30
431;DHT22;202;48.764;9.172;2023-12-28T21:35:29;11.70;44.10
431;DHT22;202;48.764;9.172;2023-12-28T21:37:58;11.70;44.20
431;DHT22;202;48.764;9.172;2023-12-28T21:40:28;11.80;44.10
431;DHT22;202;48.764;9.172;2023-12-28T21:42:58;11.80;43.50
431;DHT22;202;48.764;9.172;2023-12-28T21:45:25;11.80;42.90
431;DHT22;202;48.764;9.172;2023-12-28T21:47:58;11.80;43.10
431;DHT22;202;48.764;9.172;2023-12-28T21:50:26;11.70;43.10
431;DHT22;202;48.764;9.172;2023-12-28T21:52:54;11.80;43.00
431;DHT22;202;48.764;9.172;2023-12-28T21:55:22;11.80;42.90
431;DHT22;202;48.764;9.172;2023-12-28T21:58:00;11.80;43.20
431;DHT22;202;48.764;9.172;2023-12-28T22:00:29;11.70;42.90
431;DHT22;202;48.764;9.172;2023-12-28T22:03:01;11.70;42.80
431;DHT22;202;48.764;9.172;2023-12-28T22:05:31;11.80;42.90
431;DHT22;202;48.764;9.172;2023-12-28T22:07:59;11.80;42.80
431;DHT22;202;48.764;9.172;2023-12-28T22:10:34;11.60;43.60
431;DHT22;202;48.764;9.172;2023-12-28T22:13:06;11.60;42.90
431;DHT22;202;48.764;9.172;2023-12-28T22:15:36;11.60;43.40
431;DHT22;202;48.764;9.172;2023-12-28T22:18:05;11.50;43.70
431;DHT22;202;48.764;9.172;2023-12-28T22:20:33;11.30;44.30
431;DHT22;202;48.764;9.172;2023-12-28T22:23:04;11.30;44.50
431;DHT22;202;48.764;9.172;2023-12-28T22:25:32;11.30;44.50
431;DHT22;202;48.764;9.172;2023-12-28T22:28:01;11.40;44.00
431;DHT22;202;48.764;9.172;2023-12-28T22:30:28;11.40;43.70
431;DHT22;202;48.764;9.172;2023-12-28T22:32:57;11.40;44.60
431;DHT22;202;48.764;9.172;2023-12-28T22:35:31;11.40;44.10
431;DHT22;202;48.764;9.172;2023-12-28T22:38:00;11.40;43.50
431;DHT22;202;48.764;9.172;2023-12-28T22:40:27;11.40;43.50
431;DHT22;202;48.764;9.172;2023-12-28T22:42:54;11.40;43.60